createdAt,value
2022-10-22T00:00:32.721Z,14.57
2022-10-22T00:03:00.914Z,14.02
2022-10-22T00:05:27.792Z,15.95
2022-10-22T00:07:54.584Z,14.00
2022-10-22T00:10:21.453Z,14.90
2022-10-22T00:12:48.236Z,17.70
2022-10-22T00:15:15.076Z,15.65
2022-10-22T00:17:42.354Z,14.95
2022-10-22T00:20:09.829Z,21.13
2022-10-22T00:22:36.636Z,15.95
2022-10-22T00:25:06.837Z,16.88
2022-10-22T00:27:33.588Z,16.48
2022-10-22T00:30:00.408Z,16.70
2022-10-22T00:32:27.279Z,16.08
2022-10-22T00:35:18.262Z,17.25
2022-10-22T00:37:45.111Z,16.13
2022-10-22T00:40:12.544Z,16.33
2022-10-22T00:42:39.671Z,15.88
2022-10-22T00:45:12.735Z,17.15
2022-10-22T00:47:55.615Z,17.77
2022-10-22T00:50:24.989Z,17.53
2022-10-22T00:52:52.227Z,16.75
2022-10-22T00:55:20.280Z,19.98
2022-10-22T00:57:47.818Z,16.23
2022-10-22T01:00:15.419Z,16.13
2022-10-22T01:02:42.944Z,16.25
2022-10-22T01:05:10.165Z,16.58
2022-10-22T01:07:53.212Z,16.38
2022-10-22T01:10:35.006Z,16.42
2022-10-22T01:13:13.170Z,17.10
2022-10-22T01:15:50.803Z,17.30
2022-10-22T01:18:24.030Z,16.80
2022-10-22T01:21:24.595Z,16.15
2022-10-22T01:24:28.374Z,17.48
2022-10-22T01:27:10.274Z,20.75
2022-10-22T01:30:00.154Z,17.67
2022-10-22T01:32:29.464Z,18.80
2022-10-22T01:35:05.651Z,20.45
2022-10-22T01:37:38.672Z,19.23
2022-10-22T01:40:07.945Z,23.17
2022-10-22T01:42:34.808Z,17.88
2022-10-22T01:45:01.828Z,16.55
2022-10-22T01:47:50.486Z,13.40
2022-10-22T01:50:35.666Z,19.45
2022-10-22T01:53:40.276Z,16.83
2022-10-22T01:56:19.046Z,18.67
2022-10-22T01:59:06.947Z,18.73
2022-10-22T02:02:01.492Z,15.52
2022-10-22T02:04:44.759Z,17.73
2022-10-22T02:07:15.778Z,18.85
2022-10-22T02:09:44.708Z,16.45
2022-10-22T02:12:13.096Z,16.77
2022-10-22T02:14:44.219Z,16.35
2022-10-22T02:17:18.183Z,18.20
2022-10-22T02:19:52.855Z,19.05
2022-10-22T02:22:20.503Z,17.33
2022-10-22T02:24:49.202Z,18.88
2022-10-22T02:27:26.939Z,20.55
2022-10-22T02:29:53.991Z,16.63
2022-10-22T02:32:24.759Z,17.63
2022-10-22T02:35:14.873Z,16.80
2022-10-22T02:37:42.905Z,15.88
2022-10-22T02:40:10.672Z,15.90
2022-10-22T02:42:40.750Z,16.05
2022-10-22T02:45:08.526Z,18.40
2022-10-22T02:47:35.809Z,16.13
2022-10-22T02:50:05.426Z,14.68
2022-10-22T02:52:34.797Z,14.35
2022-10-22T02:55:03.328Z,16.23
2022-10-22T02:57:30.277Z,15.55
2022-10-22T02:59:57.050Z,15.27
2022-10-22T03:02:23.884Z,16.20
2022-10-22T03:04:51.069Z,17.67
2022-10-22T03:07:17.917Z,16.75
2022-10-22T03:09:44.757Z,16.88
2022-10-22T03:12:11.580Z,16.75
2022-10-22T03:14:42.483Z,20.27
2022-10-22T03:17:09.535Z,18.27
2022-10-22T03:19:36.439Z,14.98
2022-10-22T03:22:08.084Z,19.17
2022-10-22T03:24:39.907Z,19.33
2022-10-22T03:27:06.731Z,16.15
2022-10-22T03:29:37.697Z,16.65
2022-10-22T03:32:04.644Z,13.98
2022-10-22T03:34:31.723Z,15.43
2022-10-22T03:37:00.957Z,16.27
2022-10-22T03:39:30.373Z,16.45
2022-10-22T03:41:57.491Z,14.70
2022-10-22T03:44:26.337Z,16.48
2022-10-22T03:46:55.520Z,16.45
2022-10-22T03:49:24.221Z,13.98
2022-10-22T03:51:51.107Z,15.80
2022-10-22T03:54:18.432Z,15.52
2022-10-22T03:56:45.292Z,15.23
2022-10-22T03:59:13.175Z,14.40
2022-10-22T04:01:40.088Z,15.48
2022-10-22T04:04:07.813Z,15.13
2022-10-22T04:06:34.664Z,14.75
2022-10-22T04:09:02.451Z,12.77
2022-10-22T04:11:29.334Z,14.60
2022-10-22T04:13:56.255Z,15.80
2022-10-22T04:16:25.161Z,13.75
2022-10-22T04:18:54.366Z,13.90
2022-10-22T04:21:21.682Z,13.68
2022-10-22T04:23:52.928Z,13.43
2022-10-22T04:26:21.145Z,13.52
2022-10-22T04:28:49.864Z,13.00
2022-10-22T04:31:23.282Z,12.35
2022-10-22T04:34:00.571Z,14.48
2022-10-22T04:36:29.001Z,14.55
2022-10-22T04:38:58.249Z,17.05
2022-10-22T04:41:28.067Z,14.93
2022-10-22T04:43:57.768Z,14.32
2022-10-22T04:46:29.091Z,16.55
2022-10-22T04:48:55.920Z,14.27
2022-10-22T04:51:24.689Z,15.20
2022-10-22T04:53:54.329Z,17.23
2022-10-22T04:56:23.548Z,15.73
2022-10-22T04:58:53.311Z,13.35
2022-10-22T05:01:23.508Z,12.65
2022-10-22T05:03:53.733Z,15.55
2022-10-22T05:06:21.689Z,17.58
2022-10-22T05:08:51.967Z,15.57
2022-10-22T05:11:20.754Z,20.35
2022-10-22T05:13:48.227Z,15.32
2022-10-22T05:16:15.531Z,15.98
2022-10-22T05:18:44.148Z,14.60
2022-10-22T05:21:16.757Z,16.45
2022-10-22T05:23:48.404Z,14.80
2022-10-22T05:26:17.795Z,15.30
2022-10-22T05:28:44.667Z,14.88
2022-10-22T05:31:13.367Z,15.82
2022-10-22T05:33:40.948Z,15.70
2022-10-22T05:36:09.465Z,14.85
2022-10-22T05:38:36.440Z,13.40
2022-10-22T05:41:12.378Z,15.85
2022-10-22T05:44:17.042Z,17.75
2022-10-22T05:46:43.918Z,15.75
2022-10-22T05:49:15.420Z,17.35
2022-10-22T05:51:42.540Z,18.85
2022-10-22T05:54:15.649Z,18.02
2022-10-22T05:56:42.519Z,15.60
2022-10-22T05:59:10.921Z,19.05
2022-10-22T06:01:40.505Z,18.75
2022-10-22T06:04:11.483Z,22.33
2022-10-22T06:06:43.208Z,15.93
2022-10-22T06:09:27.134Z,16.73
2022-10-22T06:11:55.286Z,14.77
2022-10-22T06:14:22.340Z,17.50
2022-10-22T06:16:49.367Z,18.85
2022-10-22T06:19:18.758Z,17.40
2022-10-22T06:21:46.236Z,14.30
2022-10-22T06:24:14.845Z,17.25
2022-10-22T06:26:42.115Z,18.50
2022-10-22T06:29:09.546Z,16.85
2022-10-22T06:31:37.045Z,22.95
2022-10-22T06:34:10.270Z,22.67
2022-10-22T06:36:37.544Z,22.42
2022-10-22T06:39:05.352Z,26.02
2022-10-22T06:41:32.146Z,18.73
2022-10-22T06:44:20.191Z,18.98
2022-10-22T06:46:52.071Z,21.70
2022-10-22T06:49:19.852Z,23.90
2022-10-22T06:51:50.688Z,18.45
2022-10-22T06:54:57.513Z,18.35
2022-10-22T06:57:24.462Z,18.60
2022-10-22T06:59:51.299Z,5.00
2022-10-22T07:02:18.137Z,23.73
2022-10-22T07:04:45.637Z,19.65
2022-10-22T07:07:12.710Z,19.15
2022-10-22T07:09:39.592Z,17.95
2022-10-22T07:12:06.724Z,20.88
2022-10-22T07:14:33.773Z,21.90
2022-10-22T07:17:00.659Z,18.80
2022-10-22T07:19:27.668Z,24.77
2022-10-22T07:21:54.476Z,20.00
2022-10-22T07:24:22.502Z,28.33
2022-10-22T07:26:49.584Z,22.85
2022-10-22T07:29:17.092Z,22.25
2022-10-22T07:31:44.327Z,28.40
2022-10-22T07:34:31.336Z,25.25
2022-10-22T07:36:58.192Z,21.45
2022-10-22T07:39:25.916Z,26.42
2022-10-22T07:41:53.307Z,26.80
2022-10-22T07:44:20.351Z,23.92
2022-10-22T07:46:48.927Z,28.50
2022-10-22T07:49:15.980Z,21.15
2022-10-22T07:51:42.846Z,22.60
2022-10-22T07:54:51.799Z,25.35
2022-10-22T07:57:18.643Z,22.70
2022-10-22T07:59:45.635Z,21.17
2022-10-22T08:02:13.000Z,26.25
2022-10-22T08:04:42.072Z,21.17
2022-10-22T08:07:09.120Z,20.98
2022-10-22T08:09:35.958Z,22.88
2022-10-22T08:12:02.929Z,26.15
2022-10-22T08:14:31.068Z,24.08
2022-10-22T08:16:57.977Z,25.48
2022-10-22T08:19:24.813Z,18.35
2022-10-22T08:21:51.617Z,18.45
2022-10-22T08:24:18.676Z,22.80
2022-10-22T08:26:45.647Z,24.80
2022-10-22T08:29:13.702Z,20.92
2022-10-22T08:31:40.647Z,21.52
2022-10-22T08:34:08.288Z,22.55
2022-10-22T08:36:35.084Z,17.98
2022-10-22T08:39:01.923Z,25.50
2022-10-22T08:41:28.801Z,21.60
2022-10-22T08:44:35.823Z,34.03
2022-10-22T08:47:26.674Z,20.10
2022-10-22T08:49:54.988Z,22.23
2022-10-22T08:52:22.579Z,16.60
2022-10-22T08:55:13.062Z,25.70
2022-10-22T08:58:07.319Z,18.55
2022-10-22T09:00:40.091Z,24.42
2022-10-22T09:03:28.136Z,22.55
2022-10-22T09:06:23.027Z,21.95
2022-10-22T09:08:50.239Z,16.95
2022-10-22T09:11:42.915Z,15.77
2022-10-22T09:14:24.639Z,18.05
2022-10-22T09:17:52.580Z,17.15
2022-10-22T09:21:19.015Z,19.58
2022-10-22T09:23:56.083Z,22.50
2022-10-22T09:26:23.044Z,19.10
2022-10-22T09:28:52.070Z,22.48
2022-10-22T09:31:19.472Z,19.80
2022-10-22T09:37:55.942Z,18.40
2022-10-22T09:40:25.421Z,21.00
2022-10-22T09:42:52.498Z,17.83
2022-10-22T09:45:25.805Z,18.77
2022-10-22T09:48:26.600Z,18.15
2022-10-22T09:51:16.780Z,16.10
2022-10-22T09:53:47.013Z,16.45
2022-10-22T09:56:33.471Z,19.10
2022-10-22T09:59:00.332Z,24.02
2022-10-22T10:01:35.368Z,17.48
2022-10-22T10:04:09.634Z,17.42
2022-10-22T10:06:40.556Z,19.17
2022-10-22T10:09:17.490Z,13.50
2022-10-22T10:12:05.708Z,17.55
2022-10-22T10:14:54.075Z,14.18
2022-10-22T10:17:27.419Z,15.50
2022-10-22T10:20:04.207Z,12.43
2022-10-22T10:22:46.452Z,15.55
2022-10-22T10:25:23.991Z,15.38
2022-10-22T10:28:13.140Z,15.10
2022-10-22T10:30:50.459Z,13.63
2022-10-22T10:33:55.258Z,12.05
2022-10-22T10:36:37.754Z,17.77
2022-10-22T10:39:20.243Z,11.02
2022-10-22T10:42:17.480Z,13.15
2022-10-22T10:45:40.054Z,12.38
2022-10-22T10:48:32.987Z,13.55
2022-10-22T10:51:18.508Z,12.57
2022-10-22T10:54:25.381Z,13.48
2022-10-22T10:56:55.965Z,13.43
2022-10-22T10:59:35.575Z,13.70
2022-10-22T11:02:14.060Z,10.90
2022-10-22T11:05:01.130Z,12.65
2022-10-22T11:07:35.232Z,10.77
2022-10-22T11:10:28.723Z,16.00
2022-10-22T11:13:15.443Z,17.20
2022-10-22T11:16:05.280Z,14.63
2022-10-22T11:18:52.724Z,11.82
2022-10-22T11:21:24.333Z,11.90
2022-10-22T11:24:20.307Z,12.65
2022-10-22T11:27:00.742Z,10.18
2022-10-22T11:29:33.916Z,16.25
2022-10-22T11:32:02.880Z,8.93
2022-10-22T11:34:54.256Z,12.65
2022-10-22T11:37:23.693Z,12.95
2022-10-22T11:40:07.193Z,10.48
2022-10-22T11:42:40.942Z,9.15
2022-10-22T11:45:23.963Z,11.02
2022-10-22T11:47:53.727Z,11.25
2022-10-22T11:50:22.928Z,8.82
2022-10-22T11:53:05.305Z,10.98
2022-10-22T11:55:45.537Z,12.45
2022-10-22T11:58:27.755Z,11.93
2022-10-22T12:01:09.766Z,11.25
2022-10-22T12:03:48.071Z,10.55
2022-10-22T12:06:15.746Z,13.07
2022-10-22T12:08:48.888Z,11.73
2022-10-22T12:11:30.783Z,13.35
2022-10-22T12:14:14.894Z,10.13
2022-10-22T12:17:00.964Z,7.85
2022-10-22T12:19:42.302Z,9.82
2022-10-22T12:22:17.512Z,12.50
2022-10-22T12:24:49.448Z,8.65
2022-10-22T12:27:36.130Z,14.32
2022-10-22T12:30:18.597Z,11.35
2022-10-22T12:32:46.001Z,8.75
2022-10-22T12:35:18.533Z,7.78
2022-10-22T12:37:45.593Z,8.98
2022-10-22T12:40:21.451Z,9.48
2022-10-22T12:42:53.971Z,9.60
2022-10-22T12:45:21.868Z,7.03
2022-10-22T12:47:57.365Z,9.20
2022-10-22T12:50:38.272Z,7.90
2022-10-22T12:53:17.739Z,9.25
2022-10-22T12:55:50.476Z,9.38
2022-10-22T12:58:21.318Z,8.25
2022-10-22T13:00:48.669Z,8.30
2022-10-22T13:03:30.225Z,8.55
2022-10-22T13:05:57.280Z,8.60
2022-10-22T13:08:28.245Z,9.30
2022-10-22T13:10:55.741Z,8.15
2022-10-22T13:13:32.678Z,8.98
2022-10-22T13:16:21.093Z,10.02
2022-10-22T13:18:48.688Z,11.52
2022-10-22T13:21:33.916Z,10.13
2022-10-22T13:24:39.882Z,9.40
2022-10-22T13:27:09.515Z,8.00
2022-10-22T13:29:38.265Z,8.05
2022-10-22T13:32:05.276Z,10.45
2022-10-22T13:35:10.773Z,10.05
2022-10-22T13:37:38.639Z,6.68
2022-10-22T13:40:12.687Z,7.88
2022-10-22T13:42:40.058Z,9.32
2022-10-22T13:45:07.629Z,8.85
2022-10-22T13:47:34.561Z,9.63
2022-10-22T13:50:11.036Z,7.80
2022-10-22T13:52:46.213Z,9.43
2022-10-22T13:55:31.288Z,10.50
2022-10-22T13:58:07.017Z,10.93
2022-10-22T14:00:34.032Z,7.47
2022-10-22T14:03:05.568Z,8.02
2022-10-22T14:05:32.732Z,9.02
2022-10-22T14:08:00.915Z,8.50
2022-10-22T14:10:28.290Z,6.82
2022-10-22T14:12:58.493Z,9.88
2022-10-22T14:15:28.627Z,6.60
2022-10-22T14:17:58.995Z,8.40
2022-10-22T14:20:29.568Z,6.85
2022-10-22T14:23:00.911Z,9.55
2022-10-22T14:25:28.222Z,8.15
2022-10-22T14:27:55.111Z,6.78
2022-10-22T14:30:26.427Z,7.88
2022-10-22T14:32:53.363Z,7.32
2022-10-22T14:35:22.475Z,9.52
2022-10-22T14:37:49.550Z,7.03
2022-10-22T14:40:19.382Z,7.38
2022-10-22T14:42:48.295Z,8.80
2022-10-22T14:45:25.639Z,9.50
2022-10-22T14:47:56.484Z,7.00
2022-10-22T14:50:24.808Z,7.25
2022-10-22T14:52:57.284Z,9.80
2022-10-22T14:55:26.236Z,7.80
2022-10-22T14:57:53.927Z,12.02
2022-10-22T15:00:21.195Z,9.18
2022-10-22T15:02:48.612Z,9.98
2022-10-22T15:05:17.373Z,11.10
2022-10-22T15:07:45.257Z,12.68
2022-10-22T15:10:12.260Z,9.60
2022-10-22T15:12:39.107Z,8.70
2022-10-22T15:15:31.545Z,8.00
2022-10-22T15:18:02.284Z,11.27
2022-10-22T15:20:29.208Z,15.32
2022-10-22T15:22:57.285Z,10.38
2022-10-22T15:25:24.242Z,9.60
2022-10-22T15:27:52.481Z,11.60
2022-10-22T15:30:20.816Z,12.55
2022-10-22T15:32:47.636Z,8.50
2022-10-22T15:37:55.504Z,10.45
2022-10-22T15:40:22.347Z,8.95
2022-10-22T15:42:49.176Z,8.65
2022-10-22T15:45:16.144Z,15.38
2022-10-22T15:47:48.082Z,12.20
2022-10-22T15:50:15.993Z,9.77
2022-10-22T15:52:42.779Z,11.25
2022-10-22T15:55:10.695Z,8.95
2022-10-22T15:57:38.389Z,13.52
2022-10-22T16:00:07.052Z,11.90
2022-10-22T16:02:39.237Z,10.45
2022-10-22T16:05:06.727Z,8.98
2022-10-22T16:07:33.523Z,10.70
2022-10-22T16:10:01.569Z,10.55
2022-10-22T16:12:28.492Z,10.73
2022-10-22T16:14:59.831Z,14.80
2022-10-22T16:17:26.683Z,10.68
2022-10-22T16:19:53.482Z,12.20
2022-10-22T16:22:20.403Z,13.38
2022-10-22T16:24:48.288Z,16.25
2022-10-22T16:27:15.123Z,16.23
2022-10-22T16:29:42.004Z,13.30
2022-10-22T16:32:08.892Z,15.43
2022-10-22T16:34:36.947Z,11.75
2022-10-22T16:37:09.756Z,12.80
2022-10-22T16:39:36.641Z,16.38
2022-10-22T16:42:03.532Z,14.30
2022-10-22T16:44:32.725Z,13.32
2022-10-22T16:47:00.912Z,13.70
2022-10-22T16:49:27.873Z,14.20
2022-10-22T16:51:54.787Z,14.27
2022-10-22T16:54:22.808Z,18.33
2022-10-22T16:56:49.690Z,12.52
2022-10-22T16:59:16.512Z,12.38
2022-10-22T17:01:43.790Z,14.05
2022-10-22T17:04:10.938Z,16.50
2022-10-22T17:06:37.835Z,16.00
2022-10-22T17:09:05.393Z,17.13
2022-10-22T17:11:36.319Z,14.05
2022-10-22T17:14:05.821Z,14.77
2022-10-22T17:16:32.581Z,16.35
2022-10-22T17:18:59.424Z,12.77
2022-10-22T17:21:26.300Z,14.75
2022-10-22T17:23:56.670Z,13.95
2022-10-22T17:26:26.448Z,12.57
2022-10-22T17:28:53.431Z,12.38
2022-10-22T17:31:25.816Z,14.15
2022-10-22T17:33:55.606Z,14.50
2022-10-22T17:36:24.455Z,15.07
2022-10-22T17:38:54.090Z,15.57
2022-10-22T17:41:24.004Z,14.45
2022-10-22T17:43:51.119Z,14.30
2022-10-22T17:46:21.462Z,15.35
2022-10-22T17:48:53.085Z,15.13
2022-10-22T17:51:21.190Z,14.77
2022-10-22T17:54:09.937Z,15.80
2022-10-22T17:56:38.857Z,14.27
2022-10-22T17:59:06.501Z,15.18
2022-10-22T18:01:35.740Z,14.80
2022-10-22T18:04:06.526Z,16.15
2022-10-22T18:06:33.956Z,18.33
2022-10-22T18:09:07.587Z,21.33
2022-10-22T18:11:36.922Z,21.60
2022-10-22T18:14:05.592Z,24.52
2022-10-22T18:16:32.585Z,21.00
2022-10-22T18:18:59.840Z,19.80
2022-10-22T18:21:28.833Z,17.73
2022-10-22T18:23:59.216Z,17.35
2022-10-22T18:26:27.046Z,20.13
2022-10-22T18:28:54.688Z,18.35
2022-10-22T18:31:23.983Z,17.58
2022-10-22T18:33:51.828Z,19.08
2022-10-22T18:36:21.673Z,17.63
2022-10-22T18:38:52.619Z,15.52
2022-10-22T18:41:19.933Z,15.98
2022-10-22T18:43:57.486Z,16.92
2022-10-22T18:46:25.196Z,16.17
2022-10-22T18:48:56.889Z,20.65
2022-10-22T18:51:25.363Z,18.02
2022-10-22T18:54:11.339Z,16.33
2022-10-22T18:56:42.040Z,17.58
2022-10-22T18:59:16.776Z,16.88
2022-10-22T19:01:43.859Z,16.17
2022-10-22T19:04:12.819Z,15.82
2022-10-22T19:06:44.301Z,17.70
2022-10-22T19:09:13.996Z,17.20
2022-10-22T19:11:42.035Z,16.90
2022-10-22T19:14:10.248Z,17.90
2022-10-22T19:16:37.651Z,19.85
2022-10-22T19:19:07.128Z,16.70
2022-10-22T19:21:34.051Z,14.80
2022-10-22T19:24:03.146Z,16.00
2022-10-22T19:26:30.508Z,15.18
2022-10-22T19:28:58.789Z,18.08
2022-10-22T19:31:26.577Z,14.70
2022-10-22T19:33:55.458Z,13.90
2022-10-22T19:36:28.130Z,14.63
2022-10-22T19:38:55.928Z,15.65
2022-10-22T19:41:24.357Z,14.90
2022-10-22T19:43:52.907Z,17.25
2022-10-22T19:46:20.839Z,15.25
2022-10-22T19:48:48.716Z,15.85
2022-10-22T19:51:21.378Z,14.30
2022-10-22T19:53:51.346Z,15.03
2022-10-22T19:56:20.504Z,15.52
2022-10-22T19:58:47.835Z,18.98
2022-10-22T20:01:17.811Z,14.18
2022-10-22T20:03:45.484Z,17.17
2022-10-22T20:06:14.956Z,14.48
2022-10-22T20:08:41.872Z,16.00
2022-10-22T20:11:20.802Z,14.68
2022-10-22T20:14:26.394Z,16.70
2022-10-22T20:16:53.678Z,18.50
2022-10-22T20:19:20.497Z,15.25
2022-10-22T20:21:49.259Z,16.00
2022-10-22T20:24:16.497Z,14.95
2022-10-22T20:26:46.337Z,14.00
2022-10-22T20:29:15.097Z,16.13
2022-10-22T20:31:42.068Z,14.52
2022-10-22T20:34:10.269Z,15.43
2022-10-22T20:36:37.176Z,14.70
2022-10-22T20:39:06.907Z,13.88
2022-10-22T20:41:35.027Z,13.73
2022-10-22T20:44:03.203Z,15.15
2022-10-22T20:46:32.507Z,15.38
2022-10-22T20:49:11.781Z,16.80
2022-10-22T20:51:38.717Z,15.20
2022-10-22T20:54:07.550Z,14.68
2022-10-22T20:56:36.582Z,15.05
2022-10-22T20:59:04.987Z,13.25
2022-10-22T21:01:35.674Z,16.30
2022-10-22T21:04:21.563Z,15.73
2022-10-22T21:06:50.220Z,15.25
2022-10-22T21:09:17.237Z,16.83
2022-10-22T21:11:44.485Z,14.15
2022-10-22T21:14:15.004Z,17.15
2022-10-22T21:16:43.968Z,15.00
2022-10-22T21:19:11.020Z,14.48
2022-10-22T21:21:37.888Z,15.77
2022-10-22T21:24:05.896Z,15.20
2022-10-22T21:26:35.876Z,13.30
2022-10-22T21:29:02.705Z,13.75
2022-10-22T21:31:29.526Z,15.52
2022-10-22T21:33:58.608Z,17.77
2022-10-22T21:36:25.794Z,14.55
2022-10-22T21:38:52.868Z,16.48
2022-10-22T21:41:22.519Z,16.23
2022-10-22T21:44:08.624Z,16.00
2022-10-22T21:46:35.583Z,17.15
2022-10-22T21:49:04.382Z,14.85
2022-10-22T21:51:33.669Z,15.75
2022-10-22T21:54:00.766Z,13.65
2022-10-22T21:56:33.426Z,16.23
2022-10-22T21:59:01.685Z,15.67
2022-10-22T22:01:28.827Z,15.50
2022-10-22T22:03:55.841Z,16.88
2022-10-22T22:06:28.295Z,16.77
2022-10-22T22:08:59.206Z,15.77
2022-10-22T22:11:27.600Z,15.48
2022-10-22T22:13:55.871Z,14.77
2022-10-22T22:16:28.260Z,16.95
2022-10-22T22:18:59.977Z,17.42
2022-10-22T22:21:27.202Z,16.55
2022-10-22T22:23:54.558Z,16.02
2022-10-22T22:26:26.683Z,15.57
2022-10-22T22:28:59.781Z,15.45
2022-10-22T22:31:32.138Z,15.75
2022-10-22T22:34:09.853Z,15.95
2022-10-22T22:36:39.573Z,16.13
2022-10-22T22:39:08.479Z,14.75
2022-10-22T22:41:35.269Z,19.00
2022-10-22T22:44:06.729Z,15.43
2022-10-22T22:46:34.180Z,16.58
2022-10-22T22:49:00.969Z,14.85
2022-10-22T22:51:27.786Z,16.08
2022-10-22T22:53:56.793Z,14.27
2022-10-22T22:56:25.806Z,16.65
2022-10-22T22:58:52.912Z,15.55
2022-10-22T23:01:23.215Z,15.98
2022-10-22T23:04:06.341Z,16.75
2022-10-22T23:06:36.274Z,15.13
2022-10-22T23:09:08.151Z,15.02
2022-10-22T23:11:35.667Z,15.70
2022-10-22T23:14:06.170Z,15.48
2022-10-22T23:16:36.742Z,13.93
2022-10-22T23:19:04.685Z,15.30
2022-10-22T23:21:34.903Z,15.13
2022-10-22T23:24:58.267Z,18.63
2022-10-22T23:27:25.067Z,16.65
2022-10-22T23:29:51.859Z,15.65
2022-10-22T23:32:18.657Z,15.80
2022-10-22T23:35:06.580Z,14.98
2022-10-22T23:37:33.399Z,15.27
2022-10-22T23:40:00.234Z,14.60
2022-10-22T23:42:27.140Z,14.95
2022-10-22T23:45:14.980Z,15.57
2022-10-22T23:47:42.174Z,13.98
2022-10-22T23:50:09.456Z,15.63
2022-10-22T23:52:36.772Z,15.10
2022-10-22T23:55:03.727Z,15.75
2022-10-22T23:57:30.564Z,17.35
2022-10-22T23:59:57.368Z,15.90
